< < Back
Terminal Aerodrome Forecast


Current Version              Previous Versions:   1  2  3  4  5  6  7  8  9  

Terminal Aerodrome Forecast

259
FTUS42 KCAE 192000 AAB
TAFCAE
TAF AMD
KCAE 192036Z 1921/2018 14010G15KT 3SM TSRA BR OVC015CB
      TEMPO 1921/1923 VRB15G40KT 1/2SM +TSRA FG OVC008CB
     FM200200 21008KT P6SM OVC007 WS015/21030KT
     FM201500 22012G20KT P6SM BKN020=

Latest METAR

108
SAUS80 KWBC 200000
MTRCAE
METAR KCAE 192356Z 18003KT 10SM BKN014 19/18 A2975 RMK AO2 RAB01E14
SLP073 P0000 60036 T01940178 10233 20194 58009 $


USA.gov is the U.S. government's official web portal to all federal, state and local government web resources and services.